Time;durP1;ratioP1;P1;durP2;ratioP2;P2;SDS_P1;SDS_P2;PMS_P1;PMS_P2;Temp;Humidity;BMP_temperature;BMP_pressure;BME280_temperature;BME280_humidity;BME280_pressure;Samples;Min_cycle;Max_cycle;Signal;HPM_P1;HPM_P2
2021/05/01 00:00:49;;;;;;;22.40;14.70;;;;;;;5.67;58.10;99953.98;147759;1147;104489;-72
2021/05/01 00:03:52;;;;;;;23.87;15.72;;;;;;;5.63;58.15;99957.86;147744;1147;104537;-72
2021/05/01 00:06:55;;;;;;;27.30;17.67;;;;;;;5.59;58.41;99962.56;147804;1147;104573;-74
2021/05/01 00:09:58;;;;;;;26.17;17.10;;;;;;;5.56;58.03;99976.04;147581;1147;104506;-73
2021/05/01 00:13:02;;;;;;;30.82;18.75;;;;;;;5.61;58.20;99979.16;147761;1147;104583;-73
2021/05/01 00:16:07;;;;;;;39.83;29.87;;;;;;;5.68;58.70;99979.50;147782;1148;104572;-73
2021/05/01 00:19:11;;;;;;;34.08;22.62;;;;;;;5.76;58.76;99977.04;147754;1147;104545;-72
2021/05/01 00:22:14;;;;;;;29.20;18.52;;;;;;;5.80;58.63;99967.86;147580;1147;104574;-75
2021/05/01 00:25:17;;;;;;;33.92;19.40;;;;;;;5.90;58.49;99965.27;147762;1148;104571;-72
2021/05/01 00:28:21;;;;;;;32.55;19.73;;;;;;;6.00;59.21;99962.72;147442;1147;104569;-73
2021/05/01 00:31:24;;;;;;;25.00;15.80;;;;;;;6.09;58.67;99944.22;147734;1147;104565;-74
2021/05/01 00:34:27;;;;;;;27.65;16.93;;;;;;;6.24;58.86;99938.59;147767;1147;104670;-73
2021/05/01 00:37:30;;;;;;;27.05;17.37;;;;;;;6.42;59.20;99950.22;147785;1147;104495;-75
2021/05/01 00:40:34;;;;;;;26.52;17.73;;;;;;;6.54;58.76;99948.30;147735;1147;104563;-73
2021/05/01 00:43:40;;;;;;;25.20;16.32;;;;;;;6.64;59.09;99954.50;147702;1148;104569;-72
2021/05/01 00:46:43;;;;;;;31.55;19.25;;;;;;;6.70;58.94;99958.42;147761;1148;104892;-74
2021/05/01 00:49:46;;;;;;;37.58;24.57;;;;;;;6.79;59.17;99965.53;147769;1147;104646;-71
2021/05/01 00:52:50;;;;;;;41.50;24.55;;;;;;;6.85;59.68;99958.84;147555;1147;104605;-71
2021/05/01 00:55:54;;;;;;;36.93;20.60;;;;;;;6.90;59.30;99967.25;147436;1147;104563;-72
2021/05/01 00:58:57;;;;;;;37.53;20.08;;;;;;;6.95;59.77;99972.99;147680;1148;104479;-71
2021/05/01 01:02:01;;;;;;;30.00;19.40;;;;;;;6.99;59.16;99982.34;147622;1147;104575;-71
2021/05/01 01:05:05;;;;;;;30.67;19.13;;;;;;;7.01;59.03;99977.74;147596;1148;104639;-71
2021/05/01 01:08:08;;;;;;;31.45;19.55;;;;;;;7.06;59.97;99975.53;147782;1147;104665;-73
2021/05/01 01:11:12;;;;;;;29.20;19.03;;;;;;;7.07;59.55;99993.11;147704;1147;104448;-71
2021/05/01 01:14:15;;;;;;;29.20;18.40;;;;;;;7.12;59.22;99999.81;147760;1146;104509;-71
2021/05/01 01:17:19;;;;;;;25.68;17.65;;;;;;;7.15;60.04;100004.86;147742;1147;104460;-73
2021/05/01 01:20:22;;;;;;;27.40;17.80;;;;;;;7.17;59.81;99989.64;147797;1147;104642;-74
2021/05/01 01:23:25;;;;;;;27.50;18.92;;;;;;;7.20;59.60;99989.38;147347;1146;105151;-78
2021/05/01 01:26:28;;;;;;;36.15;22.50;;;;;;;7.21;60.60;99988.38;147739;1147;104487;-73
2021/05/01 01:29:32;;;;;;;26.67;18.17;;;;;;;7.24;60.88;99982.81;147760;1147;104567;-74
2021/05/01 01:32:35;;;;;;;28.87;17.90;;;;;;;7.25;59.92;99979.16;147527;1147;104495;-76
2021/05/01 01:35:39;;;;;;;27.82;17.32;;;;;;;7.29;60.96;99993.83;147733;1146;104552;-74
2021/05/01 01:38:43;;;;;;;25.93;17.03;;;;;;;7.38;60.45;99977.08;147787;1147;104506;-73
2021/05/01 01:41:46;;;;;;;25.25;17.52;;;;;;;7.43;59.85;99977.51;147783;1147;104950;-72
2021/05/01 01:44:49;;;;;;;25.08;17.67;;;;;;;7.51;60.72;99982.12;147692;1147;104478;-72
2021/05/01 01:47:52;;;;;;;27.73;18.47;;;;;;;7.57;60.35;99983.38;147210;1147;104578;-72
2021/05/01 01:50:55;;;;;;;27.55;18.85;;;;;;;7.62;60.76;99981.12;147196;1147;104534;-74
2021/05/01 01:53:59;;;;;;;28.38;18.73;;;;;;;7.66;59.89;99987.84;147416;1147;104483;-72
2021/05/01 01:57:02;;;;;;;27.13;18.52;;;;;;;7.66;60.23;99996.64;147235;1147;104503;-71
2021/05/01 02:00:09;;;;;;;27.82;19.48;;;;;;;7.66;60.32;99995.81;147341;1147;104481;-74
2021/05/01 02:03:17;;;;;;;26.87;17.90;;;;;;;7.66;61.14;99991.34;147306;1147;104560;-73
2021/05/01 02:06:20;;;;;;;26.33;18.97;;;;;;;7.69;59.99;99966.30;147732;1147;104628;-73
2021/05/01 02:09:23;;;;;;;26.85;18.37;;;;;;;7.69;60.62;99982.23;147811;1147;104445;-72
2021/05/01 02:12:27;;;;;;;26.77;18.32;;;;;;;7.69;60.81;99965.47;147756;1147;104569;-73
2021/05/01 02:15:30;;;;;;;26.50;19.30;;;;;;;7.69;60.27;99957.51;147639;1148;104575;-73
2021/05/01 02:18:33;;;;;;;28.95;19.05;;;;;;;7.64;61.08;99963.22;147819;1148;104495;-74
2021/05/01 02:21:36;;;;;;;26.33;18.00;;;;;;;7.60;61.37;99969.80;147731;1147;104579;-76
2021/05/01 02:24:40;;;;;;;27.33;17.90;;;;;;;7.61;60.53;99968.84;147604;1147;104479;-76
2021/05/01 02:27:44;;;;;;;25.88;17.45;;;;;;;7.66;61.04;99970.09;147727;1147;104489;-74
2021/05/01 02:30:48;;;;;;;25.15;17.37;;;;;;;7.76;61.51;99974.56;147772;1147;104487;-73
2021/05/01 02:33:52;;;;;;;29.52;21.20;;;;;;;7.83;61.06;99978.30;147737;1146;104569;-73
2021/05/01 02:36:55;;;;;;;26.77;18.00;;;;;;;7.89;61.01;99987.52;147719;1147;104743;-75
2021/05/01 02:39:58;;;;;;;24.63;17.47;;;;;;;7.89;61.83;99982.20;147784;1147;104563;-74
2021/05/01 02:43:02;;;;;;;25.43;18.05;;;;;;;7.90;61.05;99963.48;147653;1148;104438;-73
2021/05/01 02:46:05;;;;;;;28.25;19.85;;;;;;;7.85;61.27;99950.64;147309;1147;104477;-73
2021/05/01 02:49:08;;;;;;;27.32;18.82;;;;;;;7.69;61.58;99939.75;147750;1147;104514;-73
2021/05/01 02:52:11;;;;;;;26.50;19.45;;;;;;;7.69;61.90;99937.09;147734;1148;104557;-74
2021/05/01 02:55:15;;;;;;;24.92;17.92;;;;;;;7.70;61.43;99940.58;147768;1147;104489;-73
2021/05/01 02:58:18;;;;;;;31.20;20.50;;;;;;;7.69;61.41;99942.41;147818;1148;104479;-72
2021/05/01 03:01:22;;;;;;;26.43;18.67;;;;;;;7.70;60.99;99945.89;147558;1147;104966;-72
2021/05/01 03:04:25;;;;;;;26.07;18.02;;;;;;;7.73;61.36;99935.00;147731;1147;104588;-73
2021/05/01 03:07:28;;;;;;;26.97;18.60;;;;;;;7.73;61.83;99930.52;147433;1147;104614;-73
2021/05/01 03:10:31;;;;;;;28.23;19.50;;;;;;;7.70;62.24;99935.27;147768;1148;104528;-73
2021/05/01 03:13:35;;;;;;;25.12;17.05;;;;;;;7.69;61.56;99934.44;147730;1147;104556;-74
2021/05/01 03:16:38;;;;;;;31.25;20.23;;;;;;;7.73;61.72;99929.68;147416;1147;104615;-76
2021/05/01 03:19:41;;;;;;;312.02;118.95;;;;;;;7.70;62.49;99933.47;147726;1147;104575;-72
2021/05/01 03:22:46;;;;;;;150.87;63.50;;;;;;;7.65;61.51;99938.36;147338;1148;104674;-71
2021/05/01 03:25:49;;;;;;;109.72;56.20;;;;;;;7.70;62.00;99922.84;147491;1147;104454;-74
2021/05/01 03:28:52;;;;;;;48.13;27.23;;;;;;;7.79;61.99;99911.34;147384;1146;105692;-74
2021/05/01 03:31:55;;;;;;;37.17;23.12;;;;;;;7.85;62.71;99908.14;147759;1148;104488;-75
2021/05/01 03:34:59;;;;;;;35.40;23.57;;;;;;;7.87;62.25;99915.94;147712;1147;104912;-75
2021/05/01 03:38:02;;;;;;;258.27;126.42;;;;;;;7.82;61.62;99916.38;147520;1147;104483;-74
2021/05/01 03:41:05;;;;;;;154.20;77.95;;;;;;;7.81;62.83;99921.83;147766;1148;104463;-74
2021/05/01 03:44:08;;;;;;;64.15;35.88;;;;;;;7.85;62.44;99934.70;147608;1147;104568;-74
2021/05/01 03:47:12;;;;;;;43.00;26.20;;;;;;;7.91;62.76;99951.02;147755;1147;104486;-72
2021/05/01 03:50:15;;;;;;;34.30;22.33;;;;;;;7.97;61.58;99953.13;147725;1147;104569;-75
2021/05/01 03:53:18;;;;;;;31.05;20.77;;;;;;;7.99;62.87;99953.83;147753;1147;104547;-74
2021/05/01 03:56:21;;;;;;;27.73;17.67;;;;;;;8.00;62.72;99947.52;147746;1147;104582;-73
2021/05/01 03:59:25;;;;;;;37.37;20.63;;;;;;;8.06;62.55;99938.95;147751;1147;104569;-73
2021/05/01 04:02:28;;;;;;;32.05;20.40;;;;;;;8.16;62.32;99934.47;147730;1147;104479;-75
2021/05/01 04:05:31;;;;;;;28.37;18.83;;;;;;;8.24;62.50;99931.91;147742;1148;104569;-74
2021/05/01 04:08:34;;;;;;;30.45;20.25;;;;;;;8.29;61.75;99942.09;147744;1146;104621;-73
2021/05/01 04:11:37;;;;;;;29.32;21.07;;;;;;;8.31;62.90;99936.64;147772;1148;104492;-73
2021/05/01 04:14:40;;;;;;;31.25;20.95;;;;;;;8.32;62.50;99931.18;147731;1147;104483;-74
2021/05/01 04:17:44;;;;;;;31.75;21.75;;;;;;;8.36;62.31;99921.09;147333;1147;104898;-74
2021/05/01 04:20:47;;;;;;;33.63;22.70;;;;;;;8.41;62.24;99934.77;147749;1147;104993;-76
2021/05/01 04:23:50;;;;;;;32.67;21.97;;;;;;;8.39;62.36;99926.96;147729;1147;104679;-75
2021/05/01 04:26:54;;;;;;;35.95;23.98;;;;;;;8.39;62.36;99926.09;147777;1147;104546;-74
2021/05/01 04:29:58;;;;;;;34.13;23.07;;;;;;;8.39;62.91;99936.73;147731;1147;104561;-76
2021/05/01 04:33:02;;;;;;;40.20;24.43;;;;;;;8.37;62.48;99938.70;147713;1147;104524;-72
2021/05/01 04:36:06;;;;;;;39.05;25.23;;;;;;;8.37;62.56;99936.05;147730;1147;104496;-75
2021/05/01 04:39:09;;;;;;;39.18;23.15;;;;;;;8.45;62.56;99939.69;147716;1147;104524;-75
2021/05/01 04:42:13;;;;;;;33.55;19.60;;;;;;;8.56;63.06;99930.66;147761;1147;104486;-75
2021/05/01 04:45:18;;;;;;;29.70;19.87;;;;;;;8.64;63.20;99944.08;147681;1147;104559;-71
2021/05/01 04:48:21;;;;;;;31.57;21.35;;;;;;;8.65;62.89;99945.73;147677;1147;104512;-75
2021/05/01 04:51:24;;;;;;;29.55;20.23;;;;;;;8.58;63.34;99947.34;147789;1147;104566;-73
2021/05/01 04:54:27;;;;;;;36.17;22.30;;;;;;;8.50;63.70;99954.36;147754;1148;104739;-73
2021/05/01 04:57:31;;;;;;;28.85;20.68;;;;;;;8.45;63.59;99960.96;147802;1147;104567;-72
2021/05/01 05:00:34;;;;;;;37.13;24.77;;;;;;;8.52;63.50;99968.34;147739;1147;104578;-76
2021/05/01 05:03:37;;;;;;;34.48;23.20;;;;;;;8.52;63.53;99966.52;147741;1147;104486;-75
2021/05/01 05:06:40;;;;;;;32.37;22.77;;;;;;;8.56;63.43;99961.74;147741;1147;104565;-72
2021/05/01 05:09:43;;;;;;;29.30;20.90;;;;;;;8.63;63.70;99961.01;147737;1147;104857;-73
2021/05/01 05:12:48;;;;;;;30.17;21.37;;;;;;;8.68;63.12;99967.70;147778;1147;104508;-73
2021/05/01 05:15:52;;;;;;;26.23;17.02;;;;;;;8.85;63.95;99972.23;147797;1147;104447;-72
2021/05/01 05:18:56;;;;;;;26.82;17.32;;;;;;;8.98;63.40;99967.39;147724;1147;104495;-73
2021/05/01 05:21:59;;;;;;;31.40;20.90;;;;;;;9.16;63.34;99970.09;147803;1147;104481;-73
2021/05/01 05:25:03;;;;;;;32.65;21.48;;;;;;;9.36;63.24;99972.61;147764;1147;105099;-81
2021/05/01 05:28:06;;;;;;;35.10;22.47;;;;;;;9.52;63.15;99966.58;147624;1147;104507;-75
2021/05/01 05:31:09;;;;;;;28.50;20.50;;;;;;;9.70;62.74;99970.08;147565;1147;104499;-78
2021/05/01 05:34:12;;;;;;;30.77;20.52;;;;;;;9.78;62.53;99964.80;147801;1147;104485;-81
2021/05/01 05:37:16;;;;;;;29.18;21.42;;;;;;;9.85;63.15;99956.17;147748;1147;104572;-72
2021/05/01 05:40:19;;;;;;;29.85;22.10;;;;;;;9.90;63.01;99956.56;147756;1147;104540;-75
2021/05/01 05:43:22;;;;;;;31.07;21.45;;;;;;;9.92;62.57;99963.39;147856;1148;104552;-72
2021/05/01 05:46:25;;;;;;;30.80;21.42;;;;;;;9.95;61.96;99949.77;147791;1147;104500;-73
2021/05/01 05:49:28;;;;;;;28.17;20.50;;;;;;;10.02;62.61;99952.63;147389;1147;104812;-73
2021/05/01 05:52:32;;;;;;;34.85;21.82;;;;;;;10.10;62.85;99963.33;147571;1148;104569;-75
2021/05/01 05:55:35;;;;;;;29.97;20.80;;;;;;;10.15;62.18;99971.70;147750;1147;104511;-70
2021/05/01 05:58:39;;;;;;;27.65;20.55;;;;;;;10.21;62.00;99983.58;147696;1147;104451;-71
2021/05/01 06:01:46;;;;;;;29.47;21.30;;;;;;;10.25;62.14;99990.27;147634;1147;104620;-71
2021/05/01 06:04:54;;;;;;;28.73;20.77;;;;;;;10.27;62.47;99992.78;147748;1147;105068;-71
2021/05/01 06:08:00;;;;;;;30.60;21.93;;;;;;;10.25;62.19;99994.77;147551;1147;104476;-71
2021/05/01 06:11:04;;;;;;;27.47;20.37;;;;;;;10.27;62.26;99998.94;147438;1147;104609;-70
2021/05/01 06:14:10;;;;;;;28.23;20.50;;;;;;;10.28;61.84;100005.13;147581;1147;104474;-70
2021/05/01 06:17:13;;;;;;;30.77;21.57;;;;;;;10.27;62.81;100000.78;147601;1146;104554;-71
2021/05/01 06:20:17;;;;;;;30.83;20.57;;;;;;;10.30;62.66;100012.00;147650;1147;104914;-70
2021/05/01 06:23:21;;;;;;;26.70;18.33;;;;;;;10.36;62.33;100007.88;147759;1147;104489;-73
2021/05/01 06:26:24;;;;;;;27.98;20.97;;;;;;;10.46;61.76;100003.25;147834;1147;104649;-71
2021/05/01 06:29:29;;;;;;;28.55;21.30;;;;;;;10.58;62.08;100001.97;147614;1147;104518;-73
2021/05/01 06:32:32;;;;;;;31.85;21.97;;;;;;;10.67;62.00;99999.36;147698;1147;104569;-72
2021/05/01 06:35:36;;;;;;;32.60;24.50;;;;;;;10.74;61.89;100006.56;147777;1147;104854;-73
2021/05/01 06:38:40;;;;;;;36.15;23.60;;;;;;;10.72;61.57;100007.70;147834;1147;104444;-73
2021/05/01 06:41:55;;;;;;;31.30;23.27;;;;;;;10.67;61.58;99999.36;147680;1147;104569;-73
2021/05/01 06:45:02;;;;;;;30.00;21.75;;;;;;;10.67;62.10;99996.69;147791;1148;104504;-74
2021/05/01 06:48:08;;;;;;;31.48;22.35;;;;;;;10.58;62.40;99990.47;147570;1147;104825;-76
2021/05/01 06:51:12;;;;;;;33.55;23.62;;;;;;;10.56;61.72;99995.13;147311;1147;104481;-77
2021/05/01 06:54:16;;;;;;;32.70;23.53;;;;;;;10.50;62.29;99985.10;147764;1147;104562;-69
2021/05/01 06:57:24;;;;;;;32.10;24.23;;;;;;;10.39;62.22;99986.20;147655;1147;104774;-71
2021/05/01 07:00:30;;;;;;;37.60;26.33;;;;;;;10.32;62.95;99986.01;147828;1147;104607;-77
2021/05/01 07:03:40;;;;;;;35.65;25.08;;;;;;;10.31;62.28;99988.83;147666;1147;104492;-76
2021/05/01 07:06:45;;;;;;;34.25;24.95;;;;;;;10.28;62.33;99979.30;147859;1147;104569;-80
2021/05/01 07:09:48;;;;;;;36.45;24.85;;;;;;;10.27;62.52;99976.78;147804;1146;104554;-77
2021/05/01 07:12:52;;;;;;;48.30;34.83;;;;;;;10.30;63.35;99982.67;147393;1147;104853;-80
2021/05/01 07:16:01;;;;;;;40.60;24.75;;;;;;;10.34;63.55;99973.35;147576;1147;104634;-76
2021/05/01 07:19:08;;;;;;;36.70;23.38;;;;;;;10.37;62.72;99980.19;147911;1147;104460;-76
2021/05/01 07:22:13;;;;;;;39.70;30.08;;;;;;;10.41;63.09;99977.06;147942;1148;104680;-75
2021/05/01 07:25:16;;;;;;;34.95;25.55;;;;;;;10.51;63.21;99974.28;148246;1147;104480;-76
2021/05/01 07:28:23;;;;;;;34.83;24.85;;;;;;;10.60;63.27;99967.12;147736;1147;104532;-76
2021/05/01 07:31:30;;;;;;;37.93;28.00;;;;;;;10.62;63.40;99973.14;147790;1147;104572;-78
2021/05/01 07:34:34;;;;;;;34.63;24.30;;;;;;;10.66;63.63;99957.65;147694;1147;104492;-77
2021/05/01 07:37:40;;;;;;;32.88;24.87;;;;;;;10.70;63.90;99964.33;147648;1147;104568;-76
2021/05/01 07:40:43;;;;;;;33.88;25.30;;;;;;;10.66;63.71;99962.98;147523;1147;104482;-75
2021/05/01 07:43:50;;;;;;;32.70;23.93;;;;;;;10.61;62.96;99964.31;147694;1146;104566;-75
2021/05/01 07:46:53;;;;;;;33.45;24.65;;;;;;;10.59;63.07;99963.63;147690;1147;104578;-76
2021/05/01 07:49:59;;;;;;;34.60;25.50;;;;;;;10.56;63.40;99960.45;147474;1148;104466;-76
2021/05/01 07:53:03;;;;;;;33.38;24.98;;;;;;;10.62;63.15;99962.47;147392;1148;104576;-75
2021/05/01 07:56:07;;;;;;;30.35;21.12;;;;;;;10.63;63.62;99971.33;147612;1147;104633;-77
2021/05/01 07:59:10;;;;;;;29.52;20.52;;;;;;;10.64;63.86;99955.14;147684;1146;104571;-75
2021/05/01 08:02:13;;;;;;;31.37;23.10;;;;;;;10.73;63.97;99966.69;147569;1147;104508;-76
2021/05/01 08:05:19;;;;;;;31.25;22.13;;;;;;;10.83;63.90;99966.55;147609;1147;104447;-75
2021/05/01 08:08:22;;;;;;;31.02;23.35;;;;;;;10.95;63.59;99959.91;147755;1147;104587;-76
2021/05/01 08:11:25;;;;;;;31.52;22.98;;;;;;;11.00;63.66;99961.09;147767;1147;104575;-76
2021/05/01 08:14:29;;;;;;;30.70;22.77;;;;;;;10.98;64.00;99965.76;147740;1147;104658;-77
2021/05/01 08:17:32;;;;;;;29.25;21.60;;;;;;;11.03;63.54;99975.11;147764;1147;104572;-76
2021/05/01 08:20:36;;;;;;;28.43;21.13;;;;;;;11.04;63.42;99984.81;147751;1147;104569;-75
2021/05/01 08:23:39;;;;;;;28.32;20.40;;;;;;;11.06;62.97;99977.47;147282;1147;104572;-76
2021/05/01 08:26:43;;;;;;;28.10;21.23;;;;;;;11.05;63.56;99981.98;147437;1146;104453;-76
2021/05/01 08:29:46;;;;;;;32.90;23.70;;;;;;;11.09;63.86;99977.98;147765;1147;104572;-76
2021/05/01 08:32:49;;;;;;;38.00;25.23;;;;;;;11.13;63.54;99981.16;147782;1147;104479;-76
2021/05/01 08:35:52;;;;;;;35.68;24.40;;;;;;;11.12;63.44;99972.30;147728;1147;104572;-77
2021/05/01 08:38:55;;;;;;;33.15;22.60;;;;;;;11.15;63.81;99982.66;147741;1147;104506;-75
2021/05/01 08:41:58;;;;;;;27.52;20.50;;;;;;;11.23;63.43;99973.83;147730;1148;104482;-76
2021/05/01 08:45:06;;;;;;;29.48;22.27;;;;;;;11.28;63.41;99976.86;147714;1147;104728;-76
2021/05/01 08:48:10;;;;;;;29.75;22.65;;;;;;;11.43;63.61;99989.55;147763;1146;104569;-75
2021/05/01 08:51:14;;;;;;;33.73;23.90;;;;;;;11.35;63.15;99983.19;147761;1147;104528;-78
2021/05/01 08:54:17;;;;;;;33.78;25.95;;;;;;;11.22;63.31;99988.20;147800;1147;104575;-76
2021/05/01 08:57:28;;;;;;;37.73;27.37;;;;;;;11.04;64.03;99987.48;147716;1148;104564;-76
2021/05/01 09:00:31;;;;;;;38.77;28.57;;;;;;;11.00;64.15;99987.79;147783;1147;104567;-75
2021/05/01 09:03:36;;;;;;;37.35;27.20;;;;;;;10.99;63.86;99986.13;147460;1147;104818;-76
2021/05/01 09:06:41;;;;;;;35.40;26.93;;;;;;;11.04;63.93;99990.14;147690;1147;104484;-78
2021/05/01 09:09:51;;;;;;;36.60;27.50;;;;;;;11.07;64.35;99989.84;147602;1148;104507;-78
2021/05/01 09:12:54;;;;;;;32.67;25.08;;;;;;;11.04;63.71;99993.64;147778;1147;104490;-77
2021/05/01 09:16:03;;;;;;;31.90;24.47;;;;;;;11.04;63.60;99990.97;147728;1147;104742;-77
2021/05/01 09:19:06;;;;;;;30.32;22.70;;;;;;;11.10;64.09;99997.50;147653;1148;104501;-76
2021/05/01 09:22:11;;;;;;;30.17;21.77;;;;;;;11.18;64.60;100002.85;147262;1147;104480;-76
2021/05/01 09:25:15;;;;;;;32.77;24.03;;;;;;;11.28;64.01;99992.88;147306;1147;104490;-76
2021/05/01 09:28:18;;;;;;;31.00;23.27;;;;;;;11.38;63.47;99990.88;147636;1148;104614;-76
2021/05/01 09:31:21;;;;;;;33.07;25.03;;;;;;;11.49;64.12;99999.57;147702;1147;104652;-76
2021/05/01 09:34:37;;;;;;;31.30;24.10;;;;;;;11.48;63.49;99990.73;147758;1147;104477;-78
2021/05/01 09:37:41;;;;;;;35.58;26.40;;;;;;;11.45;64.56;99984.88;147786;1147;104460;-77
2021/05/01 09:40:48;;;;;;;31.02;23.57;;;;;;;11.40;64.11;99980.87;147554;1148;104687;-76
2021/05/01 09:44:02;;;;;;;34.58;25.02;;;;;;;11.40;65.71;99980.87;147798;1147;104485;-75
2021/05/01 09:47:13;;;;;;;32.37;24.90;;;;;;;11.40;64.29;99986.21;147801;1147;104821;-78
2021/05/01 09:50:22;;;;;;;32.65;25.00;;;;;;;11.45;64.86;99987.55;147798;1148;104676;-75
2021/05/01 09:53:25;;;;;;;30.15;23.47;;;;;;;11.51;64.12;99986.88;147618;1147;104553;-76
2021/05/01 09:56:29;;;;;;;35.03;24.00;;;;;;;11.65;64.84;99998.77;147724;1147;104483;-76
2021/05/01 09:59:38;;;;;;;32.45;22.25;;;;;;;11.73;64.81;100001.44;147635;1147;104505;-76
2021/05/01 10:02:42;;;;;;;30.65;22.93;;;;;;;11.81;64.82;99995.26;147297;1146;104636;-75
2021/05/01 10:05:47;;;;;;;33.18;23.50;;;;;;;11.98;64.10;99996.95;147805;1148;104591;-76
2021/05/01 10:08:57;;;;;;;34.90;25.15;;;;;;;12.01;63.59;99991.27;147719;1146;104435;-76
2021/05/01 10:12:07;;;;;;;32.28;23.65;;;;;;;11.97;63.79;99997.94;147420;1148;104525;-77
2021/05/01 10:15:17;;;;;;;34.87;24.73;;;;;;;11.90;64.35;99996.97;147746;1147;104506;-77
2021/05/01 10:18:21;;;;;;;38.00;26.33;;;;;;;11.79;64.36;99990.90;147660;1147;104575;-76
2021/05/01 10:21:27;;;;;;;40.43;27.40;;;;;;;11.71;64.43;99988.23;147556;1147;104514;-76
2021/05/01 10:24:43;;;;;;;37.98;26.35;;;;;;;11.70;64.75;99991.07;147330;1146;104470;-77
2021/05/01 10:27:48;;;;;;;35.83;26.53;;;;;;;11.67;64.87;99981.56;147567;1147;104481;-77
2021/05/01 10:30:54;;;;;;;38.00;27.27;;;;;;;11.67;64.70;99970.87;147438;1147;104477;-76
2021/05/01 10:33:58;;;;;;;34.33;25.25;;;;;;;11.67;64.60;99981.56;147717;1147;104621;-77
2021/05/01 10:37:05;;;;;;;33.23;23.73;;;;;;;11.69;64.98;99973.38;147779;1147;104492;-77
2021/05/01 10:40:10;;;;;;;34.05;26.00;;;;;;;11.75;64.43;99972.70;147722;1148;104572;-79
2021/05/01 10:43:16;;;;;;;35.58;26.35;;;;;;;11.79;64.13;99969.52;147686;1147;104550;-76
2021/05/01 10:46:25;;;;;;;37.05;27.80;;;;;;;11.82;64.12;99957.67;147274;1147;104563;-76
2021/05/01 10:49:34;;;;;;;35.43;26.20;;;;;;;11.78;64.84;99951.82;147703;1148;104505;-77
2021/05/01 10:52:38;;;;;;;33.73;25.80;;;;;;;11.73;63.75;99937.29;147716;1147;104569;-77
2021/05/01 10:55:47;;;;;;;44.73;33.03;;;;;;;11.66;64.36;99938.95;147756;1145;104447;-77
2021/05/01 10:58:50;;;;;;;38.90;28.80;;;;;;;11.56;64.60;99952.48;147768;1147;104452;-76
2021/05/01 11:01:57;;;;;;;37.20;27.77;;;;;;;11.50;64.19;99945.14;147759;1148;104448;-76
2021/05/01 11:05:03;;;;;;;47.70;33.92;;;;;;;11.42;64.76;99934.47;147697;1147;104646;-77
2021/05/01 11:08:28;;;;;;;47.95;33.08;;;;;;;11.37;65.06;99941.14;147592;1146;104611;-77
2021/05/01 11:11:35;;;;;;;36.43;25.77;;;;;;;11.43;65.04;99942.29;147783;1148;104456;-76
2021/05/01 11:14:44;;;;;;;49.50;32.63;;;;;;;11.43;65.52;99926.26;147751;1147;104575;-77
2021/05/01 11:18:00;;;;;;;58.55;37.80;;;;;;;11.49;65.23;99930.10;147426;1147;104569;-77
2021/05/01 11:21:09;;;;;;;48.17;33.10;;;;;;;11.58;65.42;99935.28;147732;1147;104564;-76
2021/05/01 11:24:13;;;;;;;35.17;26.73;;;;;;;11.66;64.45;99914.91;147788;1148;104610;-77
2021/05/01 11:27:18;;;;;;;37.03;27.67;;;;;;;11.71;65.29;99918.74;147773;1148;104560;-80
2021/05/01 11:30:23;;;;;;;33.30;25.65;;;;;;;11.79;65.03;99910.70;147763;1147;104537;-76
2021/05/01 11:33:27;;;;;;;49.40;33.88;;;;;;;11.82;65.15;99912.22;147779;1147;104556;-78
2021/05/01 11:36:34;;;;;;;52.80;34.83;;;;;;;11.75;64.98;99914.72;147761;1148;104736;-76
2021/05/01 11:39:40;;;;;;;38.48;28.92;;;;;;;11.65;65.09;99919.42;147524;1145;104569;-76
2021/05/01 11:42:45;;;;;;;40.65;28.92;;;;;;;11.55;64.14;99914.25;147724;1147;104553;-76
2021/05/01 11:45:52;;;;;;;73.80;41.90;;;;;;;11.45;64.92;99912.73;147769;1147;104474;-76
2021/05/01 11:49:03;;;;;;;49.80;33.87;;;;;;;11.32;64.92;99906.07;147742;1147;104572;-79
2021/05/01 11:52:42;;;;;;;69.82;40.73;;;;;;;11.25;65.05;99901.56;147697;1146;104479;-78
2021/05/01 11:55:50;;;;;;;42.25;27.73;;;;;;;11.25;65.14;99910.41;147752;1148;104480;-79
2021/05/01 11:59:08;;;;;;;51.08;34.85;;;;;;;11.34;65.07;99920.09;147729;1148;104579;-79
2021/05/01 12:02:13;;;;;;;55.78;36.53;;;;;;;11.46;64.95;99922.44;147785;1147;104496;-76
2021/05/01 12:05:20;;;;;;;49.65;32.70;;;;;;;11.46;64.66;99909.91;147549;1147;104479;-77
2021/05/01 12:08:26;;;;;;;34.25;25.57;;;;;;;11.43;64.18;99914.75;147762;1147;104572;-77
2021/05/01 12:11:31;;;;;;;47.13;29.87;;;;;;;11.38;64.70;99915.27;147798;1147;104573;-77
2021/05/01 12:14:35;;;;;;;40.65;28.50;;;;;;;11.38;65.17;99907.25;147741;1148;104584;-79
2021/05/01 12:17:41;;;;;;;33.90;26.37;;;;;;;11.37;64.99;99911.77;147803;1148;104565;-76
2021/05/01 12:20:45;;;;;;;36.90;26.97;;;;;;;11.32;64.75;99924.77;147547;1147;104481;-77
2021/05/01 12:23:49;;;;;;;44.35;29.72;;;;;;;11.28;64.53;99911.89;147765;1148;104627;-78
2021/05/01 12:26:53;;;;;;;49.08;32.78;;;;;;;11.26;64.94;99903.22;147777;1148;104471;-77
2021/05/01 12:29:56;;;;;;;31.82;22.27;;;;;;;11.20;65.12;99915.39;147598;1147;104679;-77
2021/05/01 12:33:23;;;;;;;32.35;22.87;;;;;;;11.14;65.38;99921.40;147674;1147;104643;-78
2021/05/01 12:36:28;;;;;;;32.58;24.05;;;;;;;11.09;65.36;99932.59;147369;1147;104578;-78
2021/05/01 12:39:32;;;;;;;29.77;22.25;;;;;;;11.02;65.59;99944.91;147523;1147;104607;-77
2021/05/01 12:42:36;;;;;;;29.90;22.50;;;;;;;10.96;65.51;99950.91;147754;1148;104597;-77
2021/05/01 12:45:39;;;;;;;34.18;24.60;;;;;;;10.90;65.61;99955.06;147734;1147;104508;-76
2021/05/01 12:48:48;;;;;;;33.45;24.32;;;;;;;10.88;65.31;99949.06;147760;1147;104575;-79
2021/05/01 12:52:09;;;;;;;39.23;28.20;;;;;;;10.87;65.62;99947.37;147791;1147;104534;-77
2021/05/01 12:55:15;;;;;;;39.40;27.75;;;;;;;10.85;65.89;99952.04;147805;1147;104591;-77
2021/05/01 12:58:21;;;;;;;40.73;28.65;;;;;;;10.83;65.39;99943.36;147424;1147;104575;-77
2021/05/01 13:01:30;;;;;;;37.83;23.73;;;;;;;10.80;65.82;99943.70;147744;1147;104483;-79
2021/05/01 13:04:36;;;;;;;27.32;19.23;;;;;;;10.81;65.29;99945.36;147737;1147;104572;-76
2021/05/01 13:07:43;;;;;;;22.33;17.97;;;;;;;10.80;65.34;99947.20;147778;1147;104382;-77
2021/05/01 13:10:47;;;;;;;23.65;18.60;;;;;;;10.86;65.61;99939.55;147781;1147;104653;-76
2021/05/01 13:14:10;;;;;;;24.45;18.87;;;;;;;10.78;65.82;99935.03;147470;1147;104514;-77
2021/05/01 13:17:15;;;;;;;26.97;20.47;;;;;;;10.70;65.97;99934.98;147720;1148;104553;-78
2021/05/01 13:20:19;;;;;;;30.30;22.02;;;;;;;10.69;66.00;99928.81;147733;1147;104474;-78
2021/05/01 13:23:36;;;;;;;26.95;21.57;;;;;;;10.72;66.56;99940.98;147653;1147;104470;-77
2021/05/01 13:26:39;;;;;;;26.93;19.87;;;;;;;10.77;66.76;99930.67;147669;1147;105177;-77
2021/05/01 13:29:44;;;;;;;27.45;20.95;;;;;;;10.82;66.58;99923.02;147643;1147;104469;-78
2021/05/01 13:32:48;;;;;;;33.00;23.15;;;;;;;10.77;66.22;99914.66;147598;1148;104442;-78
2021/05/01 13:35:52;;;;;;;47.37;29.77;;;;;;;10.84;66.29;99909.52;147749;1147;104572;-77
2021/05/01 13:38:55;;;;;;;30.40;22.20;;;;;;;10.90;66.31;99904.35;147778;1147;104471;-78
2021/05/01 13:42:07;;;;;;;34.27;24.12;;;;;;;11.00;65.45;99905.03;147714;1147;104566;-77
2021/05/01 13:45:13;;;;;;;42.48;27.60;;;;;;;11.13;66.22;99914.41;147421;1147;104517;-77
2021/05/01 13:48:17;;;;;;;47.38;29.95;;;;;;;11.19;65.86;99898.55;147204;1147;104904;-77
2021/05/01 13:51:35;;;;;;;44.90;29.05;;;;;;;11.22;65.26;99899.21;147719;1148;104550;-77
2021/05/01 13:54:38;;;;;;;30.55;21.75;;;;;;;11.28;65.58;99910.08;147694;1147;104489;-77